createdAt,value
2018-12-26T08:28:55.919Z,5.60
2018-12-26T08:31:24.803Z,3.60
2018-12-26T08:33:57.939Z,3.70
2018-12-26T08:36:26.927Z,3.60
2018-12-26T08:38:55.951Z,3.60
2018-12-26T08:41:25.076Z,3.60
2018-12-26T08:43:55.099Z,3.70
2018-12-26T08:46:24.047Z,3.70
2018-12-26T08:48:53.011Z,3.80
2018-12-26T08:51:21.975Z,3.80
2018-12-26T08:53:50.956Z,3.80
2018-12-26T08:56:19.931Z,3.70
2018-12-26T08:58:49.027Z,3.80
2018-12-26T09:01:17.960Z,3.70
2018-12-26T09:03:46.912Z,3.70
2018-12-26T09:06:15.799Z,3.80
2018-12-26T09:08:44.779Z,3.80
2018-12-26T09:11:13.651Z,3.80
2018-12-26T09:13:42.707Z,3.90
2018-12-26T09:16:11.755Z,4.00
2018-12-26T09:18:40.819Z,4.00
2018-12-26T09:21:10.075Z,4.00
2018-12-26T09:23:39.392Z,4.10
2018-12-26T09:26:10.207Z,4.10
2018-12-26T09:28:43.829Z,4.00
2018-12-26T09:31:10.219Z,4.10
2018-12-26T09:33:39.443Z,4.10
2018-12-26T09:36:08.503Z,4.10
2018-12-26T09:38:37.447Z,4.10
2018-12-26T09:41:06.687Z,4.10
2018-12-26T09:43:35.703Z,4.10
2018-12-26T09:46:04.655Z,4.00
2018-12-26T09:48:33.962Z,4.00
2018-12-26T09:51:02.951Z,4.10
2018-12-26T09:53:31.923Z,4.20
2018-12-26T09:56:00.803Z,4.20
2018-12-26T09:58:29.692Z,4.20
2018-12-26T10:00:58.926Z,4.20
2018-12-26T10:03:27.974Z,4.20
2018-12-26T10:05:56.859Z,4.20
2018-12-26T10:08:25.755Z,4.10
2018-12-26T10:10:54.655Z,4.20
2018-12-26T10:13:23.615Z,4.30
2018-12-26T10:15:52.635Z,4.30
2018-12-26T10:18:21.543Z,4.30
2018-12-26T10:20:50.511Z,4.30
2018-12-26T10:23:19.503Z,4.30
2018-12-26T10:25:48.463Z,4.30
2018-12-26T10:28:17.355Z,4.30
2018-12-26T10:30:46.244Z,4.40
2018-12-26T10:33:15.235Z,4.40
2018-12-26T10:35:44.147Z,4.30
2018-12-26T10:38:13.091Z,4.20
2018-12-26T10:40:42.057Z,4.20
2018-12-26T10:43:11.027Z,4.20
2018-12-26T10:45:39.940Z,4.20
2018-12-26T10:48:09.171Z,4.20
2018-12-26T10:50:38.143Z,4.30
2018-12-26T10:53:07.109Z,4.30
2018-12-26T10:55:36.351Z,4.30
2018-12-26T10:58:05.483Z,4.30
2018-12-26T11:00:34.519Z,4.30
2018-12-26T11:03:03.412Z,4.20
2018-12-26T11:05:32.481Z,4.30
2018-12-26T11:08:01.470Z,4.30
2018-12-26T11:10:30.556Z,4.30
2018-12-26T11:12:59.427Z,4.40
2018-12-26T11:15:28.455Z,4.40
2018-12-26T11:17:57.527Z,4.40
2018-12-26T11:20:26.939Z,4.40
2018-12-26T11:22:55.848Z,4.40
2018-12-26T11:25:24.800Z,4.40
2018-12-26T11:27:53.836Z,4.40
2018-12-26T11:30:22.832Z,4.40
2018-12-26T11:32:52.180Z,4.50
2018-12-26T11:35:21.265Z,4.40
2018-12-26T11:37:50.384Z,4.50
2018-12-26T11:40:19.420Z,4.50
2018-12-26T11:42:48.646Z,4.50
2018-12-26T11:45:17.581Z,4.50
2018-12-26T11:47:46.548Z,4.50
2018-12-26T11:50:34.793Z,4.50
2018-12-26T11:53:23.178Z,4.50
2018-12-26T11:55:52.261Z,4.50
2018-12-26T11:58:40.553Z,4.50
2018-12-26T12:01:28.878Z,4.60
2018-12-26T12:04:18.482Z,4.50
2018-12-26T12:06:47.613Z,4.50
2018-12-26T12:09:35.821Z,4.50
2018-12-26T12:12:04.910Z,4.50
2018-12-26T12:14:34.073Z,4.50
2018-12-26T12:17:22.253Z,4.50
2018-12-26T12:20:10.565Z,4.50
2018-12-26T12:22:52.118Z,4.50
2018-12-26T12:28:01.014Z,4.50
2018-12-26T12:30:30.249Z,4.50
2018-12-26T12:33:18.510Z,4.50
2018-12-26T12:36:06.999Z,4.50
2018-12-26T12:38:36.565Z,4.60
2018-12-26T12:41:05.908Z,4.60
2018-12-26T12:43:54.123Z,4.60
2018-12-26T12:46:23.115Z,4.60
2018-12-26T12:49:11.303Z,4.60
2018-12-26T12:51:59.811Z,4.60
2018-12-26T12:54:48.331Z,4.60
2018-12-26T12:57:17.515Z,4.70
2018-12-26T12:59:46.743Z,4.70
2018-12-26T13:02:17.720Z,4.70
2018-12-26T13:05:05.832Z,4.80
2018-12-26T13:07:34.875Z,4.80
2018-12-26T13:10:23.063Z,4.80
2018-12-26T13:12:52.115Z,4.90
2018-12-26T13:15:40.259Z,4.90
2018-12-26T13:18:29.211Z,4.90
2018-12-26T13:21:10.127Z,4.90
2018-12-26T13:23:51.323Z,4.90
2018-12-26T13:26:20.435Z,4.90
2018-12-26T13:29:08.671Z,4.90
2018-12-26T13:31:38.062Z,4.80
2018-12-26T13:34:26.863Z,4.90
2018-12-26T13:37:15.119Z,5.00
2018-12-26T13:39:44.131Z,5.10
2018-12-26T13:42:13.096Z,5.00
2018-12-26T13:45:01.333Z,5.00
2018-12-26T13:47:49.536Z,5.10
2018-12-26T13:50:37.756Z,5.10
2018-12-26T13:53:25.932Z,5.10
2018-12-26T13:56:14.140Z,5.10
2018-12-26T13:58:43.231Z,5.10
2018-12-26T14:01:31.385Z,5.10
2018-12-26T14:04:00.425Z,5.10
2018-12-26T14:06:48.635Z,5.10
2018-12-26T14:09:36.863Z,5.10
2018-12-26T14:12:05.859Z,5.00
2018-12-26T14:17:46.692Z,5.10
2018-12-26T14:20:15.764Z,5.00
2018-12-26T14:22:57.024Z,4.90
2018-12-26T14:25:26.160Z,5.00
2018-12-26T14:28:14.376Z,5.00
2018-12-26T14:30:43.372Z,5.00
2018-12-26T14:33:31.576Z,5.00
2018-12-26T14:36:19.936Z,5.00
2018-12-26T14:39:09.440Z,5.00
2018-12-26T14:41:57.536Z,5.00
2018-12-26T14:44:45.748Z,5.00
2018-12-26T14:47:34.284Z,5.00
2018-12-26T14:50:22.496Z,5.10
2018-12-26T14:53:10.688Z,5.00
2018-12-26T14:55:58.877Z,5.10
2018-12-26T14:58:27.885Z,5.10
2018-12-26T15:00:56.928Z,5.10
2018-12-26T15:03:45.162Z,5.10
2018-12-26T15:06:14.209Z,5.10
2018-12-26T15:09:02.748Z,5.10
2018-12-26T15:11:31.817Z,5.10
2018-12-26T15:14:19.957Z,5.10
2018-12-26T15:17:08.558Z,5.00
2018-12-26T15:19:57.108Z,5.00
2018-12-26T15:22:45.524Z,5.00
2018-12-26T15:25:33.816Z,5.00
2018-12-26T15:28:22.368Z,5.00
2018-12-26T15:30:51.672Z,5.00
2018-12-26T15:33:39.896Z,5.10
2018-12-26T15:36:28.021Z,5.10
2018-12-26T15:39:16.233Z,5.10
2018-12-26T15:41:45.233Z,5.00
2018-12-26T15:44:14.289Z,5.10
2018-12-26T15:47:02.548Z,5.10
2018-12-26T15:49:50.728Z,5.00
2018-12-26T15:52:38.936Z,5.10
2018-12-26T15:55:08.101Z,5.00
2018-12-26T15:57:56.399Z,5.00
2018-12-26T16:00:25.565Z,5.00
2018-12-26T16:03:13.879Z,5.00
2018-12-26T16:05:43.117Z,5.00
2018-12-26T16:08:31.457Z,5.00
2018-12-26T16:11:19.661Z,5.00
2018-12-26T16:13:48.742Z,5.00
2018-12-26T16:16:36.913Z,5.00
2018-12-26T16:19:25.086Z,5.10
2018-12-26T16:22:13.294Z,5.00
2018-12-26T16:24:42.498Z,5.00
2018-12-26T16:27:11.813Z,5.00
2018-12-26T16:30:00.282Z,5.00
2018-12-26T16:32:48.566Z,5.10
2018-12-26T16:35:17.626Z,5.00
2018-12-26T16:38:05.842Z,5.00
2018-12-26T16:40:53.966Z,4.90
2018-12-26T16:43:23.046Z,4.90
2018-12-26T16:45:52.027Z,4.90
2018-12-26T16:48:40.877Z,4.90
2018-12-26T16:51:29.113Z,4.90
2018-12-26T16:54:17.282Z,4.90
2018-12-26T16:56:46.285Z,4.90
2018-12-26T16:59:15.542Z,4.90
2018-12-26T17:01:44.875Z,4.90
2018-12-26T17:04:13.946Z,4.90
2018-12-26T17:06:43.010Z,4.90
2018-12-26T17:09:13.998Z,4.90
2018-12-26T17:11:42.986Z,5.00
2018-12-26T17:14:11.894Z,5.00
2018-12-26T17:16:41.042Z,4.90
2018-12-26T17:19:29.282Z,4.90
2018-12-26T17:22:17.495Z,4.90
2018-12-26T17:24:46.610Z,4.90
2018-12-26T17:27:37.882Z,4.90
2018-12-26T17:30:07.422Z,4.90
2018-12-26T17:33:00.599Z,4.90
2018-12-26T17:35:27.162Z,4.90
2018-12-26T17:38:15.431Z,4.90
2018-12-26T17:41:03.644Z,4.90
2018-12-26T17:43:51.846Z,4.90
2018-12-26T17:46:40.206Z,4.90
2018-12-26T17:49:09.275Z,4.90
2018-12-26T17:51:38.367Z,4.90
2018-12-26T17:54:45.651Z,5.00
2018-12-26T17:57:19.563Z,5.00
2018-12-26T18:00:30.326Z,5.00
2018-12-26T18:02:59.359Z,5.10
2018-12-26T18:05:28.507Z,5.00
2018-12-26T18:07:57.391Z,5.00
2018-12-26T18:10:26.298Z,5.10
2018-12-26T18:12:55.339Z,5.10
2018-12-26T18:15:24.375Z,5.10
2018-12-26T18:17:53.263Z,5.10
2018-12-26T18:20:22.327Z,5.10
2018-12-26T18:22:51.363Z,5.20
2018-12-26T18:25:20.340Z,5.10
2018-12-26T18:27:50.394Z,5.10
2018-12-26T18:30:27.215Z,5.00
2018-12-26T18:32:56.327Z,5.00
2018-12-26T18:35:25.354Z,5.00
2018-12-26T18:37:54.390Z,4.90
2018-12-26T18:40:23.422Z,4.90
2018-12-26T18:42:52.738Z,4.90
2018-12-26T18:45:21.907Z,4.90
2018-12-26T18:47:50.862Z,4.80
2018-12-26T18:50:19.959Z,4.80
2018-12-26T18:52:48.935Z,4.80
2018-12-26T18:55:17.894Z,4.80
2018-12-26T18:57:46.876Z,4.70
2018-12-26T19:00:15.995Z,4.70
2018-12-26T19:02:44.887Z,4.70
2018-12-26T19:05:13.940Z,4.70
2018-12-26T19:07:42.912Z,4.70
2018-12-26T19:10:11.965Z,4.70
2018-12-26T19:12:41.107Z,4.70
2018-12-26T19:15:10.328Z,4.70
2018-12-26T19:17:39.402Z,4.60
2018-12-26T19:20:10.455Z,4.60
2018-12-26T19:22:40.539Z,4.60
2018-12-26T19:25:09.524Z,4.70
2018-12-26T19:27:38.800Z,4.60
2018-12-26T19:30:10.943Z,4.60
2018-12-26T19:32:40.580Z,4.60
2018-12-26T19:35:14.463Z,4.60
2018-12-26T19:37:43.968Z,4.50
2018-12-26T19:40:13.079Z,4.50
2018-12-26T19:42:42.043Z,4.50
2018-12-26T19:45:11.136Z,4.50
2018-12-26T19:47:40.115Z,4.50
2018-12-26T19:50:10.080Z,4.40
2018-12-26T19:52:39.315Z,4.40
2018-12-26T19:55:09.471Z,4.40
2018-12-26T19:57:38.440Z,4.40
2018-12-26T20:00:08.259Z,4.40
2018-12-26T20:02:37.220Z,4.40
2018-12-26T20:05:06.191Z,4.40
2018-12-26T20:07:35.567Z,4.40
2018-12-26T20:10:05.073Z,4.40
2018-12-26T20:12:34.025Z,4.40
2018-12-26T20:15:03.080Z,4.30
2018-12-26T20:17:32.045Z,4.40
2018-12-26T20:20:01.008Z,4.30
2018-12-26T20:22:30.032Z,4.30
2018-12-26T20:24:59.024Z,4.20
2018-12-26T20:27:27.992Z,4.20
2018-12-26T20:29:57.013Z,4.20
2018-12-26T20:32:26.260Z,4.20
2018-12-26T20:34:55.457Z,4.30
2018-12-26T20:37:24.432Z,4.30
2018-12-26T20:39:53.348Z,4.20
2018-12-26T20:42:22.376Z,4.30
2018-12-26T20:44:51.440Z,4.30
2018-12-26T20:47:20.364Z,4.30
2018-12-26T20:49:49.433Z,4.30
2018-12-26T20:52:18.311Z,4.30
2018-12-26T20:54:47.490Z,4.20
2018-12-26T20:57:16.375Z,4.20
2018-12-26T20:59:45.370Z,4.20
2018-12-26T21:02:14.386Z,4.10
2018-12-26T21:04:43.334Z,4.10
2018-12-26T21:07:12.322Z,4.10
2018-12-26T21:09:41.310Z,4.10
2018-12-26T21:12:10.266Z,4.00
2018-12-26T21:14:39.183Z,4.00
2018-12-26T21:17:08.198Z,4.10
2018-12-26T21:19:37.359Z,4.00
2018-12-26T21:22:06.354Z,4.00
2018-12-26T21:24:35.314Z,4.00
2018-12-26T21:27:04.454Z,4.00
2018-12-26T21:29:33.850Z,4.00
2018-12-26T21:32:02.991Z,4.00
2018-12-26T21:34:31.954Z,4.00
2018-12-26T21:37:00.850Z,4.00
2018-12-26T21:39:29.758Z,3.90
2018-12-26T21:41:58.715Z,3.90
2018-12-26T21:44:27.723Z,4.00
2018-12-26T21:46:56.950Z,4.00
2018-12-26T21:49:25.915Z,4.00
2018-12-26T21:51:54.899Z,4.00
2018-12-26T21:54:23.775Z,4.00
2018-12-26T21:56:53.011Z,4.00
2018-12-26T21:59:21.963Z,4.00
2018-12-26T22:01:51.551Z,4.00
2018-12-26T22:04:20.457Z,4.00
2018-12-26T22:06:49.431Z,4.00
2018-12-26T22:09:18.399Z,4.00
2018-12-26T22:11:47.367Z,4.00
2018-12-26T22:14:16.683Z,4.00
2018-12-26T22:16:45.663Z,4.00
2018-12-26T22:19:14.567Z,4.00
2018-12-26T22:21:43.459Z,4.00
2018-12-26T22:24:12.383Z,4.00
2018-12-26T22:26:43.384Z,4.00
2018-12-26T22:29:12.307Z,4.00
2018-12-26T22:31:41.395Z,4.00
2018-12-26T22:34:10.383Z,3.90
2018-12-26T22:36:39.434Z,3.90
2018-12-26T22:39:08.475Z,3.90
2018-12-26T22:41:37.471Z,3.90
2018-12-26T22:44:06.437Z,3.90
2018-12-26T22:46:35.333Z,3.90
2018-12-26T22:49:04.400Z,3.90
2018-12-26T22:51:41.605Z,3.90
2018-12-26T22:54:04.214Z,3.90
2018-12-26T22:56:33.088Z,3.90
2018-12-26T22:59:02.304Z,3.80
2018-12-26T23:01:31.425Z,3.80
2018-12-26T23:04:00.472Z,3.80
2018-12-26T23:06:29.428Z,3.80
2018-12-26T23:08:58.320Z,3.80
2018-12-26T23:11:27.312Z,3.80
2018-12-26T23:13:56.272Z,3.80
2018-12-26T23:16:25.308Z,3.80
2018-12-26T23:18:54.348Z,3.80
2018-12-26T23:21:23.731Z,3.80
2018-12-26T23:23:53.088Z,3.80
2018-12-26T23:26:22.308Z,3.80
2018-12-26T23:28:51.220Z,3.80
2018-12-26T23:31:20.276Z,3.80
2018-12-26T23:33:49.237Z,3.80
2018-12-26T23:36:18.154Z,3.80
2018-12-26T23:38:47.205Z,3.80
2018-12-26T23:41:16.089Z,3.70
2018-12-26T23:43:45.069Z,3.70
2018-12-26T23:46:14.253Z,3.70
2018-12-26T23:48:43.145Z,3.80
2018-12-26T23:51:12.105Z,3.80
2018-12-26T23:53:41.541Z,3.80
2018-12-26T23:56:10.436Z,3.80
2018-12-26T23:58:39.391Z,3.80
